Time;durP1;ratioP1;P1;durP2;ratioP2;P2;SDS_P1;SDS_P2;PMS_P1;PMS_P2;Temp;Humidity;BMP_temperature;BMP_pressure;BME280_temperature;BME280_humidity;BME280_pressure;Samples;Min_cycle;Max_cycle;Signal;HPM_P1;HPM_P2
2024/02/28 00:01:26;;;;;;;10.57;7.32;;;;;;;;;;4999335;28;25157;-66
2024/02/28 00:03:52;;;;;;;7.95;6.70;;;;;;;;;;5004129;28;25045;-65
2024/02/28 00:06:19;;;;;;;10.57;6.68;;;;;;;;;;5000032;28;25075;-67
2024/02/28 00:08:45;;;;;;;9.77;6.53;;;;;;;;;;4981890;28;25054;-67
2024/02/28 00:11:11;;;;;;;13.50;7.20;;;;;;;;;;5002380;28;25064;-67
2024/02/28 00:13:37;;;;;;;12.23;6.55;;;;;;;;;;5002712;28;25072;-66
2024/02/28 00:16:03;;;;;;;10.02;6.95;;;;;;;;;;5002237;28;25125;-65
2024/02/28 00:18:32;;;;;;;11.70;6.72;;;;;;;;;;5003799;28;25113;-66
2024/02/28 00:20:58;;;;;;;12.23;7.30;;;;;;;;;;4983000;28;25053;-67
2024/02/28 00:23:24;;;;;;;13.02;7.63;;;;;;;;;;4984301;28;25079;-66
2024/02/28 00:25:50;;;;;;;10.50;6.60;;;;;;;;;;4988965;28;25105;-67
2024/02/28 00:28:16;;;;;;;8.35;7.20;;;;;;;;;;4981524;28;25104;-66
2024/02/28 00:30:42;;;;;;;8.30;6.65;;;;;;;;;;4993688;28;25111;-69
2024/02/28 00:33:08;;;;;;;10.75;6.70;;;;;;;;;;4984607;28;25049;-70
2024/02/28 00:35:34;;;;;;;10.40;7.18;;;;;;;;;;4987238;28;25100;-66
2024/02/28 00:38:01;;;;;;;8.82;6.35;;;;;;;;;;4999342;28;25087;-66
2024/02/28 00:40:28;;;;;;;8.43;6.55;;;;;;;;;;5000170;28;25068;-66
2024/02/28 00:42:54;;;;;;;13.85;6.85;;;;;;;;;;4986771;28;25170;-66
2024/02/28 00:45:20;;;;;;;10.20;6.95;;;;;;;;;;5000230;28;25069;-65
2024/02/28 00:47:46;;;;;;;10.88;6.90;;;;;;;;;;5005360;28;25068;-67
2024/02/28 00:50:12;;;;;;;7.82;7.00;;;;;;;;;;4994710;28;25164;-66
2024/02/28 00:52:38;;;;;;;11.10;6.53;;;;;;;;;;5002841;28;25048;-67
2024/02/28 00:55:04;;;;;;;10.63;7.05;;;;;;;;;;4998606;28;25038;-67
2024/02/28 00:57:31;;;;;;;11.32;7.10;;;;;;;;;;4986116;28;25054;-66
2024/02/28 00:59:57;;;;;;;11.73;7.78;;;;;;;;;;5000934;28;25076;-65
2024/02/28 01:02:23;;;;;;;9.82;6.57;;;;;;;;;;5001333;28;25084;-67
2024/02/28 01:04:49;;;;;;;8.95;6.55;;;;;;;;;;5000493;28;25077;-67
2024/02/28 01:07:15;;;;;;;12.15;7.93;;;;;;;;;;5002722;28;25141;-68
2024/02/28 01:09:41;;;;;;;9.93;7.07;;;;;;;;;;5000358;28;25099;-68
2024/02/28 01:12:07;;;;;;;11.85;7.15;;;;;;;;;;5005672;28;25109;-67
2024/02/28 01:14:33;;;;;;;8.95;6.82;;;;;;;;;;5003175;28;25062;-68
2024/02/28 01:16:59;;;;;;;9.43;7.18;;;;;;;;;;5001708;28;25066;-67
2024/02/28 01:19:25;;;;;;;10.15;7.43;;;;;;;;;;4977751;28;25069;-68
2024/02/28 01:21:51;;;;;;;10.98;7.57;;;;;;;;;;4999149;28;25068;-66
2024/02/28 01:24:17;;;;;;;7.90;7.13;;;;;;;;;;4996972;28;25099;-67
2024/02/28 01:26:43;;;;;;;11.63;7.70;;;;;;;;;;4999961;28;25065;-70
2024/02/28 01:29:09;;;;;;;10.93;8.30;;;;;;;;;;5002000;28;25077;-67
2024/02/28 01:31:35;;;;;;;13.20;8.60;;;;;;;;;;4997958;28;25071;-67
2024/02/28 01:34:01;;;;;;;11.10;8.57;;;;;;;;;;4987000;28;25058;-68
2024/02/28 01:36:28;;;;;;;15.15;7.72;;;;;;;;;;5001224;28;25055;-67
2024/02/28 01:38:54;;;;;;;10.60;8.35;;;;;;;;;;4998357;28;25076;-67
2024/02/28 01:41:20;;;;;;;10.00;7.93;;;;;;;;;;4995146;28;25055;-64
2024/02/28 01:43:46;;;;;;;11.50;7.90;;;;;;;;;;5018832;28;25061;-67
2024/02/28 01:46:22;;;;;;;11.00;7.40;;;;;;;;;;5017526;28;25103;-67
2024/02/28 01:48:48;;;;;;;14.82;9.02;;;;;;;;;;5008203;28;25068;-66
2024/02/28 01:51:14;;;;;;;13.80;9.25;;;;;;;;;;5002758;28;25077;-66
2024/02/28 01:53:40;;;;;;;10.18;8.63;;;;;;;;;;5011208;28;25058;-66
2024/02/28 01:56:06;;;;;;;12.07;8.50;;;;;;;;;;5003677;28;25070;-67
2024/02/28 01:58:32;;;;;;;17.88;9.25;;;;;;;;;;4990970;28;25142;-66
2024/02/28 02:00:59;;;;;;;11.82;9.13;;;;;;;;;;5002040;28;25074;-68
2024/02/28 02:03:25;;;;;;;15.40;9.18;;;;;;;;;;5005575;28;25067;-67
2024/02/28 02:05:51;;;;;;;12.57;8.85;;;;;;;;;;5004728;28;25068;-66
2024/02/28 02:08:17;;;;;;;14.07;9.43;;;;;;;;;;5003868;28;25070;-67
2024/02/28 02:10:43;;;;;;;14.57;9.95;;;;;;;;;;4998487;28;25062;-66
2024/02/28 02:13:09;;;;;;;15.98;10.07;;;;;;;;;;4997494;28;25058;-67
2024/02/28 02:15:35;;;;;;;13.70;10.55;;;;;;;;;;5000002;28;25096;-68
2024/02/28 02:18:02;;;;;;;14.85;10.43;;;;;;;;;;5001744;28;25076;-66
2024/02/28 02:20:30;;;;;;;17.13;10.15;;;;;;;;;;5001414;28;25065;-67
2024/02/28 02:22:56;;;;;;;12.70;10.57;;;;;;;;;;4988959;28;25071;-67
2024/02/28 02:25:23;;;;;;;18.33;10.77;;;;;;;;;;5003437;28;25066;-67
2024/02/28 02:27:49;;;;;;;18.83;10.68;;;;;;;;;;4999522;28;25072;-66
2024/02/28 02:30:15;;;;;;;16.35;11.43;;;;;;;;;;4985555;28;25086;-66
2024/02/28 02:32:41;;;;;;;18.80;11.68;;;;;;;;;;4996891;28;25154;-68
2024/02/28 02:35:07;;;;;;;13.75;11.30;;;;;;;;;;4988046;28;25123;-68
2024/02/28 02:37:33;;;;;;;18.45;11.45;;;;;;;;;;4996261;28;25065;-67
2024/02/28 02:40:00;;;;;;;17.05;12.38;;;;;;;;;;5003899;28;25075;-67
2024/02/28 02:42:26;;;;;;;17.08;11.75;;;;;;;;;;5004886;28;25058;-66
2024/02/28 02:44:52;;;;;;;19.52;11.30;;;;;;;;;;5000464;28;25069;-66
2024/02/28 02:47:18;;;;;;;18.60;12.10;;;;;;;;;;4999821;28;25075;-67
2024/02/28 02:49:44;;;;;;;20.77;11.95;;;;;;;;;;5005148;28;25117;-67
2024/02/28 02:52:10;;;;;;;21.15;12.50;;;;;;;;;;4995409;28;25124;-67
2024/02/28 02:54:37;;;;;;;17.98;11.02;;;;;;;;;;5003489;28;25138;-66
2024/02/28 02:57:03;;;;;;;19.67;11.63;;;;;;;;;;5008825;28;25066;-67
2024/02/28 02:59:29;;;;;;;15.60;12.07;;;;;;;;;;5003349;28;25147;-67
2024/02/28 03:01:55;;;;;;;18.92;12.48;;;;;;;;;;4995134;28;25084;-68
2024/02/28 03:04:21;;;;;;;19.63;13.77;;;;;;;;;;4999916;28;25123;-68
2024/02/28 03:06:47;;;;;;;17.85;12.13;;;;;;;;;;5002021;28;25087;-67
2024/02/28 03:09:13;;;;;;;17.17;11.95;;;;;;;;;;5001533;28;25069;-67
2024/02/28 03:11:39;;;;;;;16.02;11.95;;;;;;;;;;4998834;28;25163;-66
2024/02/28 03:14:05;;;;;;;19.30;11.65;;;;;;;;;;4994654;28;25147;-67
2024/02/28 03:16:31;;;;;;;18.67;12.45;;;;;;;;;;5004539;28;25083;-65
2024/02/28 03:18:57;;;;;;;14.35;11.48;;;;;;;;;;4997113;28;25074;-67
2024/02/28 03:21:23;;;;;;;20.42;12.90;;;;;;;;;;5002416;28;25059;-66
2024/02/28 03:23:49;;;;;;;22.48;13.18;;;;;;;;;;4997182;28;25146;-67
2024/02/28 03:26:15;;;;;;;15.57;12.20;;;;;;;;;;5001594;28;25157;-67
2024/02/28 03:28:41;;;;;;;19.75;12.55;;;;;;;;;;5001858;28;25107;-67
2024/02/28 03:31:07;;;;;;;16.95;12.55;;;;;;;;;;5001820;28;25105;-68
2024/02/28 03:33:35;;;;;;;17.05;11.65;;;;;;;;;;5001384;28;25052;-68
2024/02/28 03:36:01;;;;;;;17.15;12.00;;;;;;;;;;4984570;28;25064;-67
2024/02/28 03:38:27;;;;;;;22.13;13.00;;;;;;;;;;4997503;28;25048;-67
2024/02/28 03:40:53;;;;;;;25.23;12.68;;;;;;;;;;4999212;28;25071;-66
2024/02/28 03:43:19;;;;;;;19.08;12.20;;;;;;;;;;5001504;28;25059;-66
2024/02/28 03:45:45;;;;;;;19.42;11.82;;;;;;;;;;5000973;28;25054;-67
2024/02/28 03:48:11;;;;;;;18.42;12.65;;;;;;;;;;5002625;28;25084;-68
2024/02/28 03:50:37;;;;;;;15.82;12.45;;;;;;;;;;5000079;28;25059;-68
2024/02/28 03:53:03;;;;;;;18.88;12.85;;;;;;;;;;5008386;28;25078;-67
2024/02/28 03:55:29;;;;;;;19.52;12.77;;;;;;;;;;5016033;28;25079;-68
2024/02/28 03:57:55;;;;;;;20.45;11.55;;;;;;;;;;5024844;28;25068;-67
2024/02/28 04:00:21;;;;;;;20.38;13.32;;;;;;;;;;5017778;28;25055;-66
2024/02/28 04:02:47;;;;;;;18.65;13.55;;;;;;;;;;5004847;28;25098;-67
2024/02/28 04:05:13;;;;;;;19.55;14.27;;;;;;;;;;5007147;28;25089;-67
2024/02/28 04:07:39;;;;;;;22.75;14.30;;;;;;;;;;5001381;28;25066;-67
2024/02/28 04:10:05;;;;;;;17.42;12.40;;;;;;;;;;5004699;28;25136;-67
2024/02/28 04:12:32;;;;;;;21.63;14.25;;;;;;;;;;4992836;28;25121;-70
2024/02/28 04:14:58;;;;;;;21.20;14.45;;;;;;;;;;5000857;28;25060;-69
2024/02/28 04:17:24;;;;;;;24.02;13.23;;;;;;;;;;5000015;28;25072;-67
2024/02/28 04:19:50;;;;;;;22.55;14.68;;;;;;;;;;4996396;28;25134;-66
2024/02/28 04:22:16;;;;;;;22.08;13.48;;;;;;;;;;4989924;28;25092;-67
2024/02/28 04:24:42;;;;;;;19.02;12.85;;;;;;;;;;4994152;28;25071;-67
2024/02/28 04:27:11;;;;;;;25.35;14.13;;;;;;;;;;5002412;28;25081;-66
2024/02/28 04:29:37;;;;;;;22.55;13.65;;;;;;;;;;5000722;28;24843;-66
2024/02/28 04:32:03;;;;;;;20.33;13.35;;;;;;;;;;4998129;28;25068;-68
2024/02/28 04:34:29;;;;;;;18.25;13.20;;;;;;;;;;4995946;28;25071;-68
2024/02/28 04:36:55;;;;;;;28.08;14.23;;;;;;;;;;5006265;28;25104;-70
2024/02/28 04:39:21;;;;;;;24.25;14.98;;;;;;;;;;4994491;28;25073;-69
2024/02/28 04:41:47;;;;;;;18.77;13.60;;;;;;;;;;5003604;28;25133;-68
2024/02/28 04:44:13;;;;;;;22.88;14.63;;;;;;;;;;5001137;28;25055;-68
2024/02/28 04:46:39;;;;;;;24.55;14.20;;;;;;;;;;4984674;28;25084;-67
2024/02/28 04:49:05;;;;;;;26.10;13.70;;;;;;;;;;4984274;28;25047;-67
2024/02/28 04:51:31;;;;;;;16.70;13.52;;;;;;;;;;4981560;28;25066;-67
2024/02/28 04:53:57;;;;;;;27.38;16.02;;;;;;;;;;4999915;28;25072;-66
2024/02/28 04:56:23;;;;;;;20.55;15.32;;;;;;;;;;5001290;28;25134;-67
2024/02/28 04:58:49;;;;;;;22.42;15.38;;;;;;;;;;4996053;28;25072;-68
2024/02/28 05:01:16;;;;;;;23.60;14.55;;;;;;;;;;4960074;28;1101345;-67
2024/02/28 05:03:41;;;;;;;26.02;16.52;;;;;;;;;;4982755;28;25103;-68
2024/02/28 05:06:07;;;;;;;26.77;16.58;;;;;;;;;;4987315;28;25110;-67
2024/02/28 05:08:34;;;;;;;22.40;16.20;;;;;;;;;;5001650;28;25047;-67
2024/02/28 05:11:00;;;;;;;28.90;16.95;;;;;;;;;;5001675;28;25140;-68
2024/02/28 05:13:26;;;;;;;26.27;14.52;;;;;;;;;;4995908;28;25103;-68
2024/02/28 05:15:52;;;;;;;21.73;16.27;;;;;;;;;;4998517;28;25097;-68
2024/02/28 05:18:18;;;;;;;24.88;17.23;;;;;;;;;;4983124;28;25050;-69
2024/02/28 05:20:44;;;;;;;26.35;17.08;;;;;;;;;;4999600;28;25061;-68
2024/02/28 05:23:10;;;;;;;26.40;16.63;;;;;;;;;;4995683;28;25052;-67
2024/02/28 05:25:36;;;;;;;29.20;18.60;;;;;;;;;;4980620;28;25110;-68
2024/02/28 05:28:02;;;;;;;21.90;17.15;;;;;;;;;;4981328;28;25095;-67
2024/02/28 05:30:28;;;;;;;21.88;15.65;;;;;;;;;;4998765;28;25075;-67
2024/02/28 05:32:54;;;;;;;24.17;16.23;;;;;;;;;;4997444;28;25074;-68
2024/02/28 05:35:20;;;;;;;30.35;18.02;;;;;;;;;;4997302;28;25068;-68
2024/02/28 05:37:46;;;;;;;24.73;16.17;;;;;;;;;;5001484;28;25077;-69
2024/02/28 05:40:12;;;;;;;25.23;18.30;;;;;;;;;;5003272;28;25057;-66
2024/02/28 05:42:39;;;;;;;23.63;15.80;;;;;;;;;;5000712;28;25090;-67
2024/02/28 05:45:06;;;;;;;34.80;19.38;;;;;;;;;;4998054;28;25056;-68
2024/02/28 05:47:32;;;;;;;24.52;17.65;;;;;;;;;;4999469;28;25073;-67
2024/02/28 05:49:58;;;;;;;28.77;18.05;;;;;;;;;;4985532;28;25058;-68
2024/02/28 05:52:28;;;;;;;23.65;16.98;;;;;;;;;;4996364;28;25063;-69
2024/02/28 05:54:54;;;;;;;25.25;16.35;;;;;;;;;;5001812;28;25058;-68
2024/02/28 05:57:20;;;;;;;29.10;17.67;;;;;;;;;;4981565;28;25057;-68
2024/02/28 05:59:46;;;;;;;31.80;18.58;;;;;;;;;;4984145;28;25070;-68
2024/02/28 06:02:12;;;;;;;23.10;17.27;;;;;;;;;;4995149;28;25072;-65
2024/02/28 06:04:38;;;;;;;24.27;17.50;;;;;;;;;;4983648;28;25139;-68
2024/02/28 06:07:05;;;;;;;24.45;16.75;;;;;;;;;;5015049;28;25097;-68
2024/02/28 06:09:31;;;;;;;26.63;19.00;;;;;;;;;;5021480;28;25058;-69
2024/02/28 06:11:57;;;;;;;25.02;16.92;;;;;;;;;;5023633;28;25077;-68
2024/02/28 06:14:23;;;;;;;23.58;15.57;;;;;;;;;;5007631;28;25069;-67
2024/02/28 06:16:49;;;;;;;25.88;17.20;;;;;;;;;;5000993;28;25094;-69
2024/02/28 06:19:15;;;;;;;24.65;18.35;;;;;;;;;;4991143;28;25065;-68
2024/02/28 06:21:42;;;;;;;31.10;19.25;;;;;;;;;;4997221;28;25066;-69
2024/02/28 06:24:08;;;;;;;28.75;18.75;;;;;;;;;;4981677;28;25067;-68
2024/02/28 06:26:34;;;;;;;34.60;19.02;;;;;;;;;;4992715;28;25074;-67
2024/02/28 06:29:06;;;;;;;35.70;19.35;;;;;;;;;;4982296;28;25097;-68
2024/02/28 06:31:32;;;;;;;30.10;20.02;;;;;;;;;;4995559;28;25080;-67
2024/02/28 06:33:58;;;;;;;30.67;17.90;;;;;;;;;;5001880;28;25076;-67
2024/02/28 06:36:24;;;;;;;29.10;18.33;;;;;;;;;;4987781;28;25052;-67
2024/02/28 06:38:50;;;;;;;30.88;18.98;;;;;;;;;;5001543;28;25131;-67
2024/02/28 06:41:16;;;;;;;29.05;17.55;;;;;;;;;;4996676;28;25174;-67
2024/02/28 06:43:42;;;;;;;29.55;18.70;;;;;;;;;;5003800;28;25076;-68
2024/02/28 06:46:09;;;;;;;31.77;19.58;;;;;;;;;;5009324;28;25110;-69
2024/02/28 06:48:35;;;;;;;30.90;19.40;;;;;;;;;;5007506;28;25062;-68
2024/02/28 06:51:01;;;;;;;31.10;20.25;;;;;;;;;;5005912;28;25102;-68
2024/02/28 06:53:27;;;;;;;31.25;18.42;;;;;;;;;;5009109;28;25086;-67
2024/02/28 06:55:53;;;;;;;27.95;19.25;;;;;;;;;;5011458;28;25066;-65
2024/02/28 06:58:19;;;;;;;29.25;19.20;;;;;;;;;;5008783;28;25068;-67
2024/02/28 07:00:45;;;;;;;33.30;18.70;;;;;;;;;;5006275;28;25056;-66
2024/02/28 07:03:11;;;;;;;30.42;19.27;;;;;;;;;;4986171;28;25061;-67
2024/02/28 07:05:37;;;;;;;31.67;19.35;;;;;;;;;;5003417;28;25068;-66
2024/02/28 07:08:03;;;;;;;30.17;20.92;;;;;;;;;;4986556;28;25128;-66
2024/02/28 07:10:29;;;;;;;25.02;16.75;;;;;;;;;;4999036;28;25100;-66
2024/02/28 07:12:55;;;;;;;32.45;19.70;;;;;;;;;;4997805;28;25100;-67
2024/02/28 07:15:21;;;;;;;28.55;19.95;;;;;;;;;;4999003;28;25079;-66
2024/02/28 07:17:47;;;;;;;27.20;17.77;;;;;;;;;;5005311;28;25069;-66
2024/02/28 07:20:14;;;;;;;24.55;17.42;;;;;;;;;;5004320;28;25067;-65
2024/02/28 07:22:42;;;;;;;27.70;19.98;;;;;;;;;;5001409;28;25054;-65
2024/02/28 07:25:08;;;;;;;35.88;20.80;;;;;;;;;;5001166;28;25080;-65
2024/02/28 07:27:34;;;;;;;30.08;20.45;;;;;;;;;;5002259;28;25144;-66
2024/02/28 07:30:03;;;;;;;24.70;19.50;;;;;;;;;;5001490;28;25145;-67
2024/02/28 07:32:34;;;;;;;31.63;20.77;;;;;;;;;;5002585;28;25092;-66
2024/02/28 07:35:00;;;;;;;26.00;19.83;;;;;;;;;;5009693;28;25068;-67
2024/02/28 07:37:26;;;;;;;33.45;20.63;;;;;;;;;;5010199;28;25146;-66
2024/02/28 07:39:52;;;;;;;32.00;20.98;;;;;;;;;;5008946;28;25072;-67
2024/02/28 07:42:18;;;;;;;29.65;20.85;;;;;;;;;;5007725;28;25076;-66
2024/02/28 07:44:44;;;;;;;32.17;20.73;;;;;;;;;;4990483;28;25111;-66
2024/02/28 07:47:10;;;;;;;28.63;20.13;;;;;;;;;;5007147;28;25076;-67
2024/02/28 07:49:36;;;;;;;33.75;21.10;;;;;;;;;;5004714;28;25145;-67
2024/02/28 07:52:02;;;;;;;28.92;19.98;;;;;;;;;;5006958;28;25059;-67
2024/02/28 07:54:28;;;;;;;28.98;21.88;;;;;;;;;;5002914;28;25083;-67
2024/02/28 07:56:54;;;;;;;31.30;19.02;;;;;;;;;;5006238;28;25103;-67
2024/02/28 07:59:20;;;;;;;32.35;22.55;;;;;;;;;;5006275;28;25054;-66
2024/02/28 08:01:46;;;;;;;28.63;21.48;;;;;;;;;;5004434;28;25144;-69
2024/02/28 08:04:12;;;;;;;30.77;21.38;;;;;;;;;;5001033;28;25142;-67
2024/02/28 08:06:40;;;;;;;31.48;21.58;;;;;;;;;;4991142;28;25141;-66
2024/02/28 08:09:07;;;;;;;24.90;16.52;;;;;;;;;;4992540;28;25139;-67
2024/02/28 08:11:33;;;;;;;33.08;22.13;;;;;;;;;;5007668;28;25168;-67
2024/02/28 08:13:59;;;;;;;32.20;21.50;;;;;;;;;;4995039;28;25062;-67
2024/02/28 08:16:25;;;;;;;28.17;20.15;;;;;;;;;;5012294;28;25140;-66
2024/02/28 08:18:51;;;;;;;31.27;19.88;;;;;;;;;;4989036;28;25068;-66
2024/02/28 08:21:18;;;;;;;32.28;19.73;;;;;;;;;;5016510;28;25070;-67
2024/02/28 08:23:44;;;;;;;29.00;21.00;;;;;;;;;;5004151;28;25053;-65
2024/02/28 08:26:10;;;;;;;34.70;19.98;;;;;;;;;;5021732;28;25072;-65
2024/02/28 08:28:36;;;;;;;30.27;22.15;;;;;;;;;;5015393;28;25105;-68
2024/02/28 08:31:02;;;;;;;28.00;20.27;;;;;;;;;;5009060;28;25077;-67
2024/02/28 08:33:28;;;;;;;31.75;21.25;;;;;;;;;;5003609;28;25078;-65
2024/02/28 08:35:54;;;;;;;29.45;20.25;;;;;;;;;;4998991;28;25076;-67
2024/02/28 08:38:20;;;;;;;32.50;21.10;;;;;;;;;;4985935;28;24760;-66
2024/02/28 08:40:46;;;;;;;29.70;20.60;;;;;;;;;;4999122;28;25139;-68
2024/02/28 08:43:12;;;;;;;30.60;20.00;;;;;;;;;;5003108;28;25078;-66
2024/02/28 08:45:38;;;;;;;33.40;21.63;;;;;;;;;;5001800;28;25122;-67
2024/02/28 08:48:04;;;;;;;26.80;18.73;;;;;;;;;;5001750;28;25129;-66
2024/02/28 08:50:30;;;;;;;31.05;19.58;;;;;;;;;;4997085;28;25072;-66
2024/02/28 08:52:56;;;;;;;31.60;19.20;;;;;;;;;;4997582;28;25070;-66
2024/02/28 08:55:22;;;;;;;30.25;20.17;;;;;;;;;;5005796;28;25078;-66
2024/02/28 08:57:49;;;;;;;30.88;19.83;;;;;;;;;;5008227;28;25052;-66
2024/02/28 09:00:15;;;;;;;27.25;18.30;;;;;;;;;;5012984;28;25087;-67
2024/02/28 09:02:41;;;;;;;27.17;20.25;;;;;;;;;;5004579;28;25074;-66
2024/02/28 09:05:08;;;;;;;35.78;20.75;;;;;;;;;;5000767;28;25059;-68
2024/02/28 09:07:35;;;;;;;32.80;20.50;;;;;;;;;;4994370;28;25073;-66
2024/02/28 09:10:04;;;;;;;28.65;19.70;;;;;;;;;;4992132;28;25087;-67
2024/02/28 09:12:30;;;;;;;32.97;20.95;;;;;;;;;;4979622;28;25106;-68
2024/02/28 09:14:57;;;;;;;26.70;18.50;;;;;;;;;;5004760;28;25080;-67
2024/02/28 09:17:23;;;;;;;31.10;20.25;;;;;;;;;;4989003;28;25061;-67
2024/02/28 09:19:49;;;;;;;32.00;19.70;;;;;;;;;;4998769;28;25058;-67
2024/02/28 09:22:17;;;;;;;29.73;19.77;;;;;;;;;;5001788;28;25064;-67
2024/02/28 09:24:43;;;;;;;27.27;19.60;;;;;;;;;;4997376;28;25052;-65
2024/02/28 09:27:09;;;;;;;30.00;20.98;;;;;;;;;;5002804;28;25074;-66
2024/02/28 09:29:35;;;;;;;26.90;19.52;;;;;;;;;;4984392;28;25067;-68
2024/02/28 09:32:01;;;;;;;31.52;20.00;;;;;;;;;;4990403;28;25083;-67
2024/02/28 09:34:27;;;;;;;31.13;21.13;;;;;;;;;;4999554;28;25060;-68
2024/02/28 09:36:53;;;;;;;29.08;20.67;;;;;;;;;;5005741;28;25061;-67
2024/02/28 09:39:19;;;;;;;29.73;20.15;;;;;;;;;;4999061;28;25071;-67
2024/02/28 09:41:49;;;;;;;28.80;20.48;;;;;;;;;;5003655;28;25054;-67
2024/02/28 09:44:16;;;;;;;38.10;21.65;;;;;;;;;;4985826;28;25158;-66
2024/02/28 09:46:42;;;;;;;27.67;20.08;;;;;;;;;;5003972;28;25052;-69
2024/02/28 09:49:09;;;;;;;34.15;21.30;;;;;;;;;;4998634;28;25063;-66
2024/02/28 09:51:36;;;;;;;30.10;22.85;;;;;;;;;;5001883;28;25077;-67
2024/02/28 09:54:03;;;;;;;39.15;24.38;;;;;;;;;;5002040;28;25076;-66
2024/02/28 09:56:29;;;;;;;40.03;25.25;;;;;;;;;;5005259;28;25060;-65
2024/02/28 09:58:56;;;;;;;33.67;23.15;;;;;;;;;;5006510;28;25055;-66
2024/02/28 10:01:26;;;;;;;37.08;23.45;;;;;;;;;;4989131;28;25110;-67
2024/02/28 10:03:53;;;;;;;33.72;24.67;;;;;;;;;;5006189;28;25055;-68
2024/02/28 10:06:19;;;;;;;31.95;23.90;;;;;;;;;;4992019;28;25050;-67
2024/02/28 10:08:48;;;;;;;32.22;22.30;;;;;;;;;;5000061;28;25076;-67
2024/02/28 10:11:20;;;;;;;34.50;21.88;;;;;;;;;;4997732;28;25057;-67
2024/02/28 10:13:46;;;;;;;33.13;22.52;;;;;;;;;;4990771;28;25062;-67
2024/02/28 10:16:14;;;;;;;28.80;21.50;;;;;;;;;;5003889;28;25061;-66
2024/02/28 10:18:40;;;;;;;30.02;22.10;;;;;;;;;;5003025;28;25068;-66
2024/02/28 10:21:06;;;;;;;29.15;22.83;;;;;;;;;;5009825;28;25065;-68
2024/02/28 10:23:32;;;;;;;34.53;22.85;;;;;;;;;;5007578;28;25134;-66
2024/02/28 10:25:58;;;;;;;36.05;23.38;;;;;;;;;;5007020;28;25088;-67
2024/02/28 10:28:24;;;;;;;30.30;21.45;;;;;;;;;;5008637;28;25062;-67
2024/02/28 10:30:50;;;;;;;36.67;24.80;;;;;;;;;;4990866;28;25143;-67
2024/02/28 10:33:16;;;;;;;33.00;21.90;;;;;;;;;;5020185;28;25058;-68
2024/02/28 10:35:46;;;;;;;34.47;22.25;;;;;;;;;;5010642;28;25065;-66
2024/02/28 10:38:13;;;;;;;31.48;22.00;;;;;;;;;;5025968;28;25084;-66
2024/02/28 10:40:40;;;;;;;30.40;22.05;;;;;;;;;;5024559;28;25095;-67
2024/02/28 10:43:08;;;;;;;31.92;21.85;;;;;;;;;;5008843;28;25103;-66
2024/02/28 10:45:36;;;;;;;35.78;22.98;;;;;;;;;;5004436;28;25070;-67
2024/02/28 10:48:02;;;;;;;33.75;22.50;;;;;;;;;;4998347;28;25095;-68
2024/02/28 10:50:28;;;;;;;27.13;20.95;;;;;;;;;;5002206;28;25049;-67
2024/02/28 10:52:55;;;;;;;27.70;20.83;;;;;;;;;;5004627;28;25114;-67
2024/02/28 10:55:25;;;;;;;30.88;21.13;;;;;;;;;;5005798;28;25062;-66
2024/02/28 10:57:56;;;;;;;28.88;21.45;;;;;;;;;;5006718;28;25087;-66
2024/02/28 11:00:22;;;;;;;30.73;21.85;;;;;;;;;;5001254;28;25069;-66
2024/02/28 11:02:49;;;;;;;35.38;22.58;;;;;;;;;;4991435;28;25069;-67
2024/02/28 11:05:15;;;;;;;28.42;20.85;;;;;;;;;;5005415;28;25063;-67
2024/02/28 11:07:44;;;;;;;26.13;19.98;;;;;;;;;;5003956;28;25065;-67
2024/02/28 11:10:10;;;;;;;27.38;20.83;;;;;;;;;;4991948;28;25052;-68
2024/02/28 11:12:37;;;;;;;31.73;20.58;;;;;;;;;;4999059;28;25081;-66
2024/02/28 11:15:06;;;;;;;27.25;20.08;;;;;;;;;;5010744;28;25071;-66
2024/02/28 11:17:33;;;;;;;27.10;20.10;;;;;;;;;;5004837;28;25062;-66
2024/02/28 11:19:59;;;;;;;24.15;17.75;;;;;;;;;;5012018;28;25071;-67
2024/02/28 11:22:28;;;;;;;22.73;18.20;;;;;;;;;;5006654;28;25104;-65
2024/02/28 11:24:55;;;;;;;27.75;20.88;;;;;;;;;;5010775;28;25081;-67
2024/02/28 11:27:22;;;;;;;27.60;19.63;;;;;;;;;;5008761;28;25071;-67
2024/02/28 11:29:49;;;;;;;29.27;20.45;;;;;;;;;;5000233;28;25062;-66
2024/02/28 11:32:15;;;;;;;27.38;19.35;;;;;;;;;;4991645;28;25072;-68
2024/02/28 11:34:42;;;;;;;27.45;19.58;;;;;;;;;;4997253;28;25054;-67
2024/02/28 11:37:09;;;;;;;29.20;18.77;;;;;;;;;;5003290;28;24803;-68
2024/02/28 11:39:36;;;;;;;25.70;18.75;;;;;;;;;;5008328;28;25145;-67
2024/02/28 11:42:15;;;;;;;28.00;20.48;;;;;;;;;;5010949;28;25081;-67
2024/02/28 11:44:41;;;;;;;27.83;19.20;;;;;;;;;;5010021;28;25061;-67
2024/02/28 11:47:10;;;;;;;24.45;17.77;;;;;;;;;;5002666;28;25129;-67
2024/02/28 11:49:37;;;;;;;25.10;18.38;;;;;;;;;;5001008;28;25042;-67
2024/02/28 11:52:04;;;;;;;31.15;19.48;;;;;;;;;;4998032;28;25089;-67
2024/02/28 11:54:30;;;;;;;28.10;20.25;;;;;;;;;;4994970;28;25075;-67
2024/02/28 11:56:56;;;;;;;28.35;19.98;;;;;;;;;;5005191;28;25066;-67
2024/02/28 11:59:22;;;;;;;34.05;22.27;;;;;;;;;;4994995;28;25110;-67
2024/02/28 12:01:48;;;;;;;30.83;20.25;;;;;;;;;;4986384;28;25100;-66
2024/02/28 12:04:14;;;;;;;34.80;21.98;;;;;;;;;;4998303;28;25062;-67
2024/02/28 12:06:40;;;;;;;31.38;21.85;;;;;;;;;;4998647;28;25073;-65
2024/02/28 12:09:14;;;;;;;34.67;23.05;;;;;;;;;;4997522;28;25062;-68
2024/02/28 12:11:40;;;;;;;34.95;21.65;;;;;;;;;;4997526;28;25148;-68
2024/02/28 12:14:09;;;;;;;35.40;21.92;;;;;;;;;;5001184;28;25076;-67
2024/02/28 12:16:39;;;;;;;29.27;21.50;;;;;;;;;;4994735;28;25070;-67
2024/02/28 12:19:08;;;;;;;35.42;24.05;;;;;;;;;;5002226;28;25079;-66
2024/02/28 12:21:34;;;;;;;34.05;24.02;;;;;;;;;;4997775;28;25071;-68
2024/02/28 12:24:00;;;;;;;35.83;25.25;;;;;;;;;;4976191;28;25143;-67
2024/02/28 12:26:27;;;;;;;42.10;27.77;;;;;;;;;;5002387;28;25067;-66
2024/02/28 12:28:53;;;;;;;37.92;27.30;;;;;;;;;;5004561;28;25143;-67
2024/02/28 12:31:21;;;;;;;37.15;26.70;;;;;;;;;;5003933;28;25063;-66
2024/02/28 12:33:47;;;;;;;40.67;25.38;;;;;;;;;;4990859;28;25068;-67
2024/02/28 12:36:13;;;;;;;35.10;26.00;;;;;;;;;;4992814;28;25170;-67
2024/02/28 12:38:41;;;;;;;39.33;25.25;;;;;;;;;;4990128;28;25061;-68
2024/02/28 12:41:07;;;;;;;35.28;25.15;;;;;;;;;;4997638;28;25144;-67
2024/02/28 12:43:33;;;;;;;32.42;23.27;;;;;;;;;;4988813;28;25048;-68
2024/02/28 12:45:59;;;;;;;32.42;22.27;;;;;;;;;;4980939;28;25069;-68
2024/02/28 12:48:25;;;;;;;38.80;25.17;;;;;;;;;;4991476;28;25058;-67
2024/02/28 12:50:52;;;;;;;36.45;25.75;;;;;;;;;;5013244;28;25107;-68
2024/02/28 12:53:18;;;;;;;41.22;28.70;;;;;;;;;;5014472;28;25115;-67
2024/02/28 12:55:44;;;;;;;48.58;30.67;;;;;;;;;;5002824;28;25070;-66
2024/02/28 12:58:10;;;;;;;46.00;31.13;;;;;;;;;;5012070;28;25090;-68
2024/02/28 13:00:37;;;;;;;50.00;31.65;;;;;;;;;;5003996;28;25058;-67
2024/02/28 13:03:03;;;;;;;43.67;28.27;;;;;;;;;;4992911;28;25146;-68
2024/02/28 13:05:29;;;;;;;44.33;29.52;;;;;;;;;;4998751;28;25062;-65
2024/02/28 13:07:55;;;;;;;45.45;28.17;;;;;;;;;;5003057;28;25071;-67
2024/02/28 13:10:22;;;;;;;41.97;27.98;;;;;;;;;;4996671;28;25056;-67
2024/02/28 13:12:48;;;;;;;41.33;26.08;;;;;;;;;;4991867;28;25063;-66
2024/02/28 13:15:14;;;;;;;39.63;26.52;;;;;;;;;;4982047;28;25074;-66
2024/02/28 13:17:41;;;;;;;47.25;28.55;;;;;;;;;;4985240;28;25076;-68
2024/02/28 13:20:07;;;;;;;43.42;27.17;;;;;;;;;;4995858;28;25060;-67
2024/02/28 13:22:33;;;;;;;44.83;28.00;;;;;;;;;;5004696;28;25163;-68
2024/02/28 13:25:00;;;;;;;48.60;29.23;;;;;;;;;;5007863;28;25080;-68
2024/02/28 13:27:26;;;;;;;43.17;27.83;;;;;;;;;;5010690;28;25073;-66
2024/02/28 13:29:52;;;;;;;43.38;27.25;;;;;;;;;;4987974;28;25066;-67
2024/02/28 13:32:18;;;;;;;41.15;26.95;;;;;;;;;;5000140;28;25077;-67
2024/02/28 13:34:44;;;;;;;45.55;28.08;;;;;;;;;;5007885;28;25056;-68
2024/02/28 13:37:10;;;;;;;40.83;27.45;;;;;;;;;;5006939;28;25056;-66
2024/02/28 13:39:36;;;;;;;46.13;28.83;;;;;;;;;;5008784;28;25061;-67
2024/02/28 13:42:06;;;;;;;49.58;28.08;;;;;;;;;;4987583;28;25053;-67
2024/02/28 13:44:32;;;;;;;44.45;28.25;;;;;;;;;;4993230;28;25181;-68
2024/02/28 13:46:58;;;;;;;41.05;26.73;;;;;;;;;;4995432;28;25162;-66
2024/02/28 13:49:24;;;;;;;45.10;26.95;;;;;;;;;;4975481;28;25128;-67
2024/02/28 13:51:51;;;;;;;45.63;26.83;;;;;;;;;;4999613;28;25060;-68
2024/02/28 13:54:17;;;;;;;37.85;25.15;;;;;;;;;;5010108;28;25080;-67
2024/02/28 13:56:43;;;;;;;39.10;25.08;;;;;;;;;;4997460;28;25089;-67
2024/02/28 13:59:09;;;;;;;40.95;24.20;;;;;;;;;;4998912;28;25097;-66
2024/02/28 14:01:36;;;;;;;31.65;23.05;;;;;;;;;;5000960;28;25048;-67
2024/02/28 14:04:03;;;;;;;34.85;23.20;;;;;;;;;;5000384;28;25072;-67
2024/02/28 14:06:30;;;;;;;34.50;23.13;;;;;;;;;;4990516;28;25125;-68
2024/02/28 14:08:56;;;;;;;31.80;23.45;;;;;;;;;;5008109;28;25071;-67
2024/02/28 14:11:22;;;;;;;34.55;24.05;;;;;;;;;;5005574;28;25045;-66
2024/02/28 14:13:48;;;;;;;32.22;21.67;;;;;;;;;;4999088;28;25067;-67